Time;durP1;ratioP1;P1;durP2;ratioP2;P2;SDS_P1;SDS_P2;PMS_P1;PMS_P2;Temp;Humidity;BMP_temperature;BMP_pressure;BME280_temperature;BME280_humidity;BME280_pressure;Samples;Min_cycle;Max_cycle;Signal;HPM_P1;HPM_P2
2022/11/18 04:02:19;;;;;;;;;;;18.70;52.00;;;;;;5081480;23;46211;-67
2022/11/18 04:04:46;;;;;;;;;;;18.60;52.00;;;;;;4955703;28;45671;-64
2022/11/18 04:07:14;;;;;;;;;;;18.60;52.00;;;;;;4939780;28;45263;-68
2022/11/18 04:09:44;;;;;;;;;;;18.60;52.00;;;;;;4955135;28;46413;-64
2022/11/18 04:12:14;;;;;;;;;;;18.60;52.00;;;;;;4947866;28;46026;-67
2022/11/18 04:14:40;;;;;;;;;;;18.60;52.00;;;;;;4954344;28;45784;-63
2022/11/18 04:17:09;;;;;;;;;;;18.60;52.00;;;;;;4953036;28;44751;-65
2022/11/18 04:19:34;;;;;;;;;;;18.60;52.00;;;;;;4964907;28;45480;-65
2022/11/18 04:22:00;;;;;;;;;;;18.60;52.00;;;;;;4959004;28;46810;-63
2022/11/18 04:24:25;;;;;;;;;;;18.60;52.00;;;;;;4961329;28;45174;-64
2022/11/18 04:26:51;;;;;;;;;;;18.60;52.10;;;;;;4954512;28;45618;-64
2022/11/18 04:29:16;;;;;;;;;;;18.60;52.00;;;;;;4958181;28;45056;-64
2022/11/18 04:31:42;;;;;;;;;;;18.60;52.00;;;;;;4954558;28;46172;-66
2022/11/18 04:34:07;;;;;;;;;;;18.60;52.00;;;;;;4952798;28;45466;-66
2022/11/18 04:36:33;;;;;;;;;;;18.60;52.10;;;;;;4956706;28;45252;-65
2022/11/18 04:38:58;;;;;;;;;;;18.60;52.00;;;;;;4952402;28;45385;-66
2022/11/18 04:41:54;;;;;;;;;;;18.60;52.10;;;;;;4950052;28;45835;-68
2022/11/18 04:44:11;;;;;;;;;;;18.50;52.00;;;;;;4955061;28;44890;-65
2022/11/18 04:46:40;;;;;;;;;;;18.50;52.00;;;;;;4960133;28;44818;-64
2022/11/18 04:49:06;;;;;;;;;;;18.50;52.00;;;;;;4955637;28;45049;-65
2022/11/18 04:51:32;;;;;;;;;;;18.50;52.00;;;;;;4957694;28;46914;-64
2022/11/18 04:53:57;;;;;;;;;;;18.50;52.00;;;;;;4952958;28;44738;-64
2022/11/18 04:56:23;;;;;;;;;;;18.50;52.00;;;;;;4955371;28;45425;-66
2022/11/18 04:58:49;;;;;;;;;;;18.50;52.00;;;;;;4933574;28;45313;-63
2022/11/18 05:01:14;;;;;;;;;;;18.50;52.10;;;;;;4956444;28;45521;-62
2022/11/18 05:03:39;;;;;;;;;;;18.50;52.10;;;;;;4957826;28;44750;-64
2022/11/18 05:06:05;;;;;;;;;;;18.50;52.00;;;;;;4965009;28;45281;-63
2022/11/18 05:08:33;;;;;;;;;;;18.50;52.00;;;;;;4955128;28;46176;-61
2022/11/18 05:12:47;;;;;;;;;;;18.50;52.00;;;;;;4959169;28;46046;-62
2022/11/18 05:13:44;;;;;;;;;;;18.50;52.10;;;;;;4952668;28;45559;-65
2022/11/18 05:16:09;;;;;;;;;;;18.50;52.10;;;;;;4953981;28;45614;-64
2022/11/18 05:18:35;;;;;;;;;;;18.40;52.00;;;;;;4953581;28;44755;-64
2022/11/18 05:21:03;;;;;;;;;;;18.40;52.00;;;;;;4953643;28;46275;-62
2022/11/18 05:23:29;;;;;;;;;;;18.50;52.60;;;;;;4953021;28;45010;-65
2022/11/18 05:25:54;;;;;;;;;;;18.40;52.00;;;;;;4954304;28;45640;-64
2022/11/18 05:28:20;;;;;;;;;;;18.40;52.00;;;;;;4952033;28;45212;-63
2022/11/18 05:30:45;;;;;;;;;;;18.40;51.90;;;;;;4958798;28;46062;-64
2022/11/18 05:33:11;;;;;;;;;;;18.40;52.00;;;;;;4952460;28;45687;-64
2022/11/18 05:35:36;;;;;;;;;;;18.40;52.00;;;;;;4954050;28;44912;-64
2022/11/18 05:38:02;;;;;;;;;;;18.40;52.00;;;;;;4956305;28;45321;-61
2022/11/18 05:40:27;;;;;;;;;;;18.40;52.00;;;;;;4957563;28;46075;-63
2022/11/18 05:43:11;;;;;;;;;;;18.40;52.00;;;;;;4957507;28;45144;-63
2022/11/18 05:45:37;;;;;;;;;;;18.40;52.10;;;;;;4952697;28;45602;-65
2022/11/18 05:48:03;;;;;;;;;;;18.40;52.00;;;;;;4955368;28;45000;-63
2022/11/18 05:50:32;;;;;;;;;;;18.40;52.10;;;;;;4955169;28;45933;-64
2022/11/18 05:52:57;;;;;;;;;;;18.40;52.10;;;;;;4953453;28;44944;-64
2022/11/18 05:55:41;;;;;;;;;;;18.30;52.10;;;;;;4955207;28;45393;-64
2022/11/18 05:58:06;;;;;;;;;;;18.30;52.10;;;;;;4953074;28;44948;-64
2022/11/18 06:00:32;;;;;;;;;;;18.30;52.10;;;;;;4955565;28;45788;-63
2022/11/18 06:02:57;;;;;;;;;;;18.30;52.10;;;;;;4936355;28;45374;-65
2022/11/18 06:05:23;;;;;;;;;;;18.30;52.10;;;;;;4953897;28;45445;-66
2022/11/18 06:07:48;;;;;;;;;;;18.30;52.10;;;;;;4952155;28;45482;-65
2022/11/18 06:10:18;;;;;;;;;;;18.30;52.10;;;;;;4951343;28;46203;-64
2022/11/18 06:12:44;;;;;;;;;;;18.30;52.20;;;;;;4952554;28;45508;-64
2022/11/18 06:15:10;;;;;;;;;;;18.30;52.20;;;;;;4955109;28;45348;-64
2022/11/18 06:17:40;;;;;;;;;;;18.30;52.20;;;;;;4954961;28;45027;-64
2022/11/18 06:20:06;;;;;;;;;;;18.30;52.20;;;;;;4938562;28;45421;-67
2022/11/18 06:22:32;;;;;;;;;;;18.30;52.20;;;;;;4950630;28;45075;-64
2022/11/18 06:24:58;;;;;;;;;;;18.30;52.20;;;;;;4954096;28;45225;-64
2022/11/18 06:27:24;;;;;;;;;;;18.30;52.20;;;;;;4938731;28;45621;-66
2022/11/18 06:29:49;;;;;;;;;;;18.30;52.20;;;;;;4951210;28;45935;-66
2022/11/18 06:32:15;;;;;;;;;;;18.30;52.20;;;;;;4949910;28;45628;-64
2022/11/18 06:34:40;;;;;;;;;;;18.20;52.20;;;;;;4957410;28;45471;-64
2022/11/18 06:37:15;;;;;;;;;;;18.20;52.20;;;;;;4953543;28;45493;-62
2022/11/18 06:39:41;;;;;;;;;;;18.20;52.20;;;;;;4953484;28;45320;-67
2022/11/18 06:42:06;;;;;;;;;;;18.20;52.20;;;;;;4951856;28;45372;-66
2022/11/18 06:44:32;;;;;;;;;;;18.20;52.20;;;;;;4954628;28;45387;-66
2022/11/18 06:46:58;;;;;;;;;;;18.20;52.20;;;;;;4953573;28;45579;-64
2022/11/18 06:49:24;;;;;;;;;;;18.20;52.20;;;;;;4954438;28;45584;-65
2022/11/18 06:51:49;;;;;;;;;;;18.20;52.20;;;;;;4955248;28;45500;-65
2022/11/18 06:54:15;;;;;;;;;;;18.20;52.30;;;;;;4955496;28;45219;-63
2022/11/18 06:56:40;;;;;;;;;;;18.20;52.20;;;;;;4954288;28;44974;-63
2022/11/18 06:59:05;;;;;;;;;;;18.20;52.20;;;;;;4955672;28;44882;-63
2022/11/18 07:01:33;;;;;;;;;;;18.10;52.20;;;;;;4956064;28;45268;-63
2022/11/18 07:03:58;;;;;;;;;;;18.10;52.20;;;;;;4955386;28;45766;-64
2022/11/18 07:06:25;;;;;;;;;;;18.20;52.30;;;;;;4951418;28;45674;-64
2022/11/18 07:08:50;;;;;;;;;;;18.10;52.20;;;;;;4952562;28;46392;-63
2022/11/18 07:11:17;;;;;;;;;;;18.20;52.30;;;;;;4949429;28;45469;-59
2022/11/18 07:13:42;;;;;;;;;;;18.20;52.10;;;;;;4952165;28;45131;-59
2022/11/18 07:16:09;;;;;;;;;;;18.20;51.60;;;;;;4950417;28;45543;-61
2022/11/18 07:18:36;;;;;;;;;;;18.10;51.40;;;;;;4951840;28;45121;-64
2022/11/18 07:21:05;;;;;;;;;;;18.00;51.40;;;;;;4954155;28;45308;-63
2022/11/18 07:23:30;;;;;;;;;;;17.90;51.50;;;;;;4952469;28;45264;-61
2022/11/18 07:25:56;;;;;;;;;;;17.80;51.60;;;;;;4951127;28;45315;-62
2022/11/18 07:28:22;;;;;;;;;;;17.70;51.70;;;;;;4954557;28;46293;-60
2022/11/18 07:30:47;;;;;;;;;;;17.60;51.90;;;;;;4953530;28;45240;-60
2022/11/18 07:33:13;;;;;;;;;;;17.50;52.10;;;;;;4956180;28;45423;-62
2022/11/18 07:35:38;;;;;;;;;;;17.40;52.50;;;;;;4955376;28;45369;-61
2022/11/18 07:38:04;;;;;;;;;;;17.20;52.60;;;;;;4954272;28;46054;-59
2022/11/18 07:40:29;;;;;;;;;;;17.20;52.80;;;;;;4953390;28;45238;-61
2022/11/18 07:42:54;;;;;;;;;;;17.00;53.80;;;;;;4956668;28;44828;-59
2022/11/18 07:45:20;;;;;;;;;;;16.80;53.60;;;;;;4954712;28;45597;-61
2022/11/18 07:47:45;;;;;;;;;;;16.70;53.80;;;;;;4950948;28;46095;-61
2022/11/18 07:50:11;;;;;;;;;;;16.60;54.00;;;;;;4961043;28;44984;-61
2022/11/18 07:52:36;;;;;;;;;;;16.50;54.00;;;;;;4955954;28;45322;-60
2022/11/18 07:55:02;;;;;;;;;;;16.50;54.20;;;;;;4955293;28;45191;-60
2022/11/18 07:57:27;;;;;;;;;;;16.40;54.40;;;;;;4951094;28;46077;-61
2022/11/18 07:59:53;;;;;;;;;;;16.30;54.50;;;;;;4946908;28;45206;-58
2022/11/18 08:02:18;;;;;;;;;;;16.20;54.80;;;;;;4951745;28;45437;-57
2022/11/18 08:04:44;;;;;;;;;;;16.20;54.90;;;;;;4956190;28;45699;-60
2022/11/18 08:07:09;;;;;;;;;;;16.20;55.10;;;;;;4956377;28;45545;-57
2022/11/18 08:09:35;;;;;;;;;;;16.20;55.00;;;;;;4942598;28;45261;-59
2022/11/18 08:12:00;;;;;;;;;;;16.30;54.80;;;;;;4954031;28;45227;-56
2022/11/18 08:14:27;;;;;;;;;;;16.40;54.70;;;;;;4960509;28;45613;-60
2022/11/18 08:16:53;;;;;;;;;;;16.60;54.30;;;;;;4955745;28;45199;-59
2022/11/18 08:19:19;;;;;;;;;;;16.80;53.80;;;;;;4959865;28;45072;-58
2022/11/18 08:21:44;;;;;;;;;;;17.10;53.40;;;;;;4956914;28;46210;-60
2022/11/18 08:24:10;;;;;;;;;;;17.30;53.00;;;;;;4958762;28;45169;-60
2022/11/18 08:26:35;;;;;;;;;;;17.50;52.60;;;;;;4955446;28;45547;-59
2022/11/18 08:29:01;;;;;;;;;;;17.70;52.40;;;;;;4960008;28;45284;-57
2022/11/18 08:31:27;;;;;;;;;;;17.90;52.00;;;;;;4956227;28;45598;-60
2022/11/18 08:33:56;;;;;;;;;;;18.20;51.80;;;;;;4956484;28;44808;-59
2022/11/18 08:36:22;;;;;;;;;;;18.30;51.50;;;;;;4957560;28;45507;-60
2022/11/18 08:38:47;;;;;;;;;;;18.50;51.30;;;;;;4940451;28;45413;-62
2022/11/18 08:41:13;;;;;;;;;;;18.70;51.00;;;;;;4956910;28;45427;-61
2022/11/18 08:43:38;;;;;;;;;;;18.80;50.80;;;;;;4954639;28;45511;-60
2022/11/18 08:46:04;;;;;;;;;;;19.00;50.60;;;;;;4957868;28;45835;-58
2022/11/18 08:48:30;;;;;;;;;;;19.20;50.50;;;;;;4954912;28;45433;-58
2022/11/18 08:50:56;;;;;;;;;;;19.30;50.30;;;;;;4967676;28;45751;-60
2022/11/18 08:53:21;;;;;;;;;;;19.40;50.10;;;;;;4940690;28;45617;-59
2022/11/18 08:55:47;;;;;;;;;;;19.60;50.00;;;;;;4955048;28;46102;-58
2022/11/18 08:58:13;;;;;;;;;;;19.70;49.90;;;;;;4953675;28;45379;-60
2022/11/18 09:00:38;;;;;;;;;;;19.90;49.80;;;;;;4956348;28;45613;-62
2022/11/18 09:03:04;;;;;;;;;;;20.00;49.60;;;;;;4956868;28;44936;-61
2022/11/18 09:05:29;;;;;;;;;;;20.10;49.40;;;;;;4955287;28;46265;-60
2022/11/18 09:07:55;;;;;;;;;;;20.30;49.30;;;;;;4953915;28;45573;-58
2022/11/18 09:10:20;;;;;;;;;;;20.40;49.10;;;;;;4958536;28;45496;-60
2022/11/18 09:12:46;;;;;;;;;;;20.50;49.00;;;;;;4950411;28;46258;-59
2022/11/18 09:15:11;;;;;;;;;;;20.60;48.80;;;;;;4958296;28;46086;-60
2022/11/18 09:17:37;;;;;;;;;;;20.70;48.70;;;;;;4954948;28;44968;-59
2022/11/18 09:20:02;;;;;;;;;;;20.90;48.60;;;;;;4957209;28;45185;-59
2022/11/18 09:22:28;;;;;;;;;;;21.00;48.40;;;;;;4953866;28;45746;-60
2022/11/18 09:24:53;;;;;;;;;;;21.10;48.30;;;;;;4955941;28;46090;-58
2022/11/18 09:27:19;;;;;;;;;;;21.20;48.10;;;;;;4954310;28;45172;-60
2022/11/18 09:29:44;;;;;;;;;;;21.30;48.00;;;;;;4956840;28;45307;-60
2022/11/18 09:32:09;;;;;;;;;;;21.40;47.80;;;;;;4955142;28;45073;-59
2022/11/18 09:34:35;;;;;;;;;;;21.60;47.80;;;;;;4956686;28;46329;-60
2022/11/18 09:37:02;;;;;;;;;;;21.60;47.50;;;;;;4954845;28;45286;-59
2022/11/18 09:39:27;;;;;;;;;;;21.80;47.50;;;;;;4957079;28;44781;-60
2022/11/18 09:42:12;;;;;;;;;;;21.90;47.40;;;;;;4955114;28;44705;-61
2022/11/18 09:44:44;;;;;;;;;;;22.00;47.90;;;;;;4955909;28;45967;-58
2022/11/18 09:47:19;;;;;;;;;;;22.00;47.10;;;;;;4954459;28;45235;-60
2022/11/18 09:49:45;;;;;;;;;;;22.20;47.10;;;;;;4954139;28;46135;-57
2022/11/18 09:52:13;;;;;;;;;;;22.20;47.00;;;;;;4958312;28;45509;-60
2022/11/18 09:54:39;;;;;;;;;;;22.30;46.90;;;;;;4956661;28;45987;-60
2022/11/18 09:57:09;;;;;;;;;;;22.30;46.70;;;;;;4955116;28;46714;-60
2022/11/18 09:59:34;;;;;;;;;;;22.40;46.70;;;;;;4945725;28;44655;-58
2022/11/18 10:02:12;;;;;;;;;;;22.50;46.60;;;;;;4939276;28;45528;-57
2022/11/18 10:04:37;;;;;;;;;;;22.50;46.50;;;;;;4955428;28;45680;-58
2022/11/18 10:07:05;;;;;;;;;;;22.60;46.50;;;;;;4956512;28;45368;-60
2022/11/18 10:09:38;;;;;;;;;;;22.60;46.40;;;;;;4940400;28;45195;-59
2022/11/18 10:12:04;;;;;;;;;;;22.70;46.30;;;;;;4938483;28;45328;-61
2022/11/18 10:14:42;;;;;;;;;;;22.70;46.20;;;;;;4955056;28;45483;-60
2022/11/18 10:17:08;;;;;;;;;;;22.80;46.20;;;;;;4935597;28;45604;-61
2022/11/18 10:19:45;;;;;;;;;;;22.80;46.10;;;;;;4957214;28;45500;-60
2022/11/18 10:22:18;;;;;;;;;;;22.90;46.10;;;;;;4943600;28;45774;-59
2022/11/18 10:24:44;;;;;;;;;;;22.90;46.00;;;;;;4939415;28;46073;-62
2022/11/18 10:27:11;;;;;;;;;;;23.00;46.00;;;;;;4949463;28;45440;-63
2022/11/18 10:29:36;;;;;;;;;;;23.00;45.90;;;;;;4957121;28;45556;-61
2022/11/18 10:32:03;;;;;;;;;;;23.10;45.90;;;;;;4956627;28;45213;-59
2022/11/18 10:34:28;;;;;;;;;;;23.10;45.80;;;;;;4958119;28;46099;-61
2022/11/18 10:36:58;;;;;;;;;;;23.10;45.70;;;;;;4936751;28;45035;-61
2022/11/18 10:39:24;;;;;;;;;;;23.20;45.70;;;;;;4958012;28;45710;-59
2022/11/18 10:41:55;;;;;;;;;;;23.20;45.70;;;;;;4952128;28;45379;-59
2022/11/18 10:44:26;;;;;;;;;;;23.30;45.70;;;;;;4943897;28;46113;-62
2022/11/18 10:46:52;;;;;;;;;;;23.30;45.60;;;;;;4954292;28;45208;-60
2022/11/18 10:49:17;;;;;;;;;;;23.40;45.50;;;;;;4955196;28;45600;-58
2022/11/18 10:51:49;;;;;;;;;;;23.40;45.50;;;;;;4944258;28;46278;-61
2022/11/18 10:54:21;;;;;;;;;;;23.50;45.40;;;;;;4947563;28;46772;-61
2022/11/18 10:56:51;;;;;;;;;;;23.50;45.30;;;;;;4948731;28;45222;-60
2022/11/18 10:59:29;;;;;;;;;;;23.60;45.20;;;;;;4952563;28;44952;-61
2022/11/18 11:01:58;;;;;;;;;;;23.60;45.20;;;;;;4951866;28;46349;-60
2022/11/18 11:04:24;;;;;;;;;;;23.60;45.10;;;;;;4950574;28;45963;-59
2022/11/18 11:06:49;;;;;;;;;;;23.70;45.10;;;;;;4952053;28;44983;-59
2022/11/18 11:09:15;;;;;;;;;;;23.70;45.00;;;;;;4952104;28;45813;-58
2022/11/18 11:11:42;;;;;;;;;;;23.80;45.00;;;;;;4952674;28;45740;-61
2022/11/18 11:14:26;;;;;;;;;;;23.80;45.00;;;;;;4951663;28;46818;-57
2022/11/18 11:17:06;;;;;;;;;;;23.80;44.90;;;;;;4951369;28;45356;-58
2022/11/18 11:19:37;;;;;;;;;;;23.80;44.80;;;;;;4950863;28;44972;-60
2022/11/18 11:22:03;;;;;;;;;;;23.90;44.90;;;;;;4948645;28;45144;-60
2022/11/18 11:24:29;;;;;;;;;;;23.90;44.80;;;;;;4951770;28;45390;-61
2022/11/18 11:27:04;;;;;;;;;;;24.00;44.80;;;;;;4950988;28;45511;-59
2022/11/18 11:29:30;;;;;;;;;;;24.00;44.80;;;;;;4948433;28;44984;-60
2022/11/18 11:31:58;;;;;;;;;;;24.00;44.70;;;;;;4952374;28;45764;-60
2022/11/18 11:34:23;;;;;;;;;;;24.10;44.80;;;;;;4951580;28;45884;-60
2022/11/18 11:36:50;;;;;;;;;;;24.10;44.70;;;;;;4950259;28;46573;-60
2022/11/18 11:39:24;;;;;;;;;;;24.10;44.70;;;;;;4950233;28;45071;-60
2022/11/18 11:41:54;;;;;;;;;;;24.10;44.60;;;;;;4950458;28;45010;-61
2022/11/18 11:44:38;;;;;;;;;;;24.20;44.60;;;;;;4955360;28;46978;-62
2022/11/18 11:50:28;;;;;;;;;;;24.20;44.60;;;;;;4954307;28;45941;-61
2022/11/18 11:52:59;;;;;;;;;;;24.10;44.40;;;;;;4956028;28;44730;-62
2022/11/18 11:55:28;;;;;;;;;;;24.10;44.50;;;;;;4954375;28;46422;-62
2022/11/18 11:58:12;;;;;;;;;;;24.20;44.40;;;;;;4953637;28;45252;-62
2022/11/18 12:00:39;;;;;;;;;;;24.20;44.40;;;;;;4952469;28;45115;-59
2022/11/18 12:03:10;;;;;;;;;;;24.20;44.40;;;;;;4950931;28;45380;-60
2022/11/18 12:05:38;;;;;;;;;;;24.20;44.40;;;;;;4953366;28;45403;-58
2022/11/18 12:08:19;;;;;;;;;;;24.30;44.30;;;;;;4950100;28;45201;-60
2022/11/18 12:10:44;;;;;;;;;;;24.40;44.40;;;;;;4936180;28;46320;-60
2022/11/18 12:13:28;;;;;;;;;;;24.40;44.30;;;;;;4954988;28;45839;-58
2022/11/18 12:15:53;;;;;;;;;;;24.40;44.30;;;;;;4955053;28;45988;-59
2022/11/18 12:18:26;;;;;;;;;;;24.40;44.20;;;;;;4955188;28;45291;-60
2022/11/18 12:20:52;;;;;;;;;;;24.40;44.20;;;;;;4934611;28;45305;-58
2022/11/18 12:23:18;;;;;;;;;;;24.50;44.20;;;;;;4955028;28;45098;-59
2022/11/18 12:25:47;;;;;;;;;;;24.50;44.20;;;;;;4953587;28;45920;-58
2022/11/18 12:28:22;;;;;;;;;;;24.50;44.20;;;;;;4956399;28;45434;-58
2022/11/18 12:30:47;;;;;;;;;;;24.50;44.10;;;;;;4954443;28;45183;-59
2022/11/18 12:33:13;;;;;;;;;;;24.60;44.10;;;;;;4956109;28;45676;-58
2022/11/18 12:35:39;;;;;;;;;;;24.60;44.10;;;;;;4951595;28;45814;-61
2022/11/18 12:38:04;;;;;;;;;;;24.60;44.00;;;;;;4953083;28;45208;-59
2022/11/18 12:40:31;;;;;;;;;;;24.70;44.10;;;;;;4953044;28;45554;-60
2022/11/18 12:45:41;;;;;;;;;;;24.70;44.10;;;;;;4952960;28;46179;-61
2022/11/18 12:48:22;;;;;;;;;;;24.70;44.00;;;;;;4943730;28;46011;-60
2022/11/18 12:50:48;;;;;;;;;;;24.70;43.90;;;;;;4949850;28;46177;-63
2022/11/18 12:53:27;;;;;;;;;;;24.80;44.00;;;;;;4955304;28;45616;-60
2022/11/18 12:55:52;;;;;;;;;;;24.80;43.90;;;;;;4949478;28;46240;-60
2022/11/18 12:58:21;;;;;;;;;;;24.80;43.90;;;;;;4948706;28;45820;-60
2022/11/18 13:00:53;;;;;;;;;;;24.80;43.90;;;;;;4954109;28;45940;-60
2022/11/18 13:03:23;;;;;;;;;;;24.80;43.80;;;;;;4953405;28;45573;-61
2022/11/18 13:05:49;;;;;;;;;;;24.90;43.90;;;;;;4953874;28;46207;-63
2022/11/18 13:08:14;;;;;;;;;;;24.90;43.90;;;;;;4953212;28;44944;-63
2022/11/18 13:10:43;;;;;;;;;;;24.90;43.90;;;;;;4950066;28;45748;-63
2022/11/18 13:13:38;;;;;;;;;;;24.90;44.00;;;;;;4951215;28;46205;-65
2022/11/18 13:18:59;;;;;;;;;;;24.90;44.00;;;;;;4951393;28;44774;-65
2022/11/18 13:24:10;;;;;;;;;;;24.90;44.00;;;;;;4954878;28;46204;-65
2022/11/18 13:26:37;;;;;;;;;;;24.90;44.00;;;;;;4933555;28;46221;-65
2022/11/18 13:29:21;;;;;;;;;;;24.90;44.00;;;;;;4953541;28;46173;-63
2022/11/18 13:32:05;;;;;;;;;;;24.90;44.00;;;;;;4953928;28;45772;-62
2022/11/18 13:34:30;;;;;;;;;;;25.00;44.00;;;;;;4952936;28;45327;-62
2022/11/18 13:36:56;;;;;;;;;;;25.00;44.00;;;;;;4951065;28;47359;-66
2022/11/18 13:39:31;;;;;;;;;;;25.00;44.00;;;;;;4953977;28;45238;-64
2022/11/18 13:41:59;;;;;;;;;;;25.00;44.00;;;;;;4950871;28;44981;-62
2022/11/18 13:44:26;;;;;;;;;;;25.00;44.00;;;;;;4952247;28;45208;-66
2022/11/18 13:46:53;;;;;;;;;;;25.00;44.00;;;;;;4952578;28;46585;-62
2022/11/18 13:49:22;;;;;;;;;;;25.00;44.00;;;;;;4948432;28;45504;-64
2022/11/18 13:51:47;;;;;;;;;;;25.10;44.00;;;;;;4944891;28;45528;-63
2022/11/18 13:54:14;;;;;;;;;;;25.10;44.00;;;;;;4948341;28;45644;-67
2022/11/18 13:56:40;;;;;;;;;;;25.10;44.00;;;;;;4950420;28;45202;-64
2022/11/18 13:59:11;;;;;;;;;;;25.10;44.00;;;;;;4950314;28;45498;-62
2022/11/18 14:01:36;;;;;;;;;;;25.10;44.00;;;;;;4950139;28;45437;-59
2022/11/18 14:04:21;;;;;;;;;;;25.10;44.00;;;;;;4951030;28;45467;-61
2022/11/18 14:06:47;;;;;;;;;;;25.10;44.00;;;;;;4950598;28;46201;-60
2022/11/18 14:09:22;;;;;;;;;;;25.10;44.00;;;;;;4952885;28;45735;-64
2022/11/18 14:12:01;;;;;;;;;;;25.20;44.10;;;;;;4952679;28;45703;-62
2022/11/18 14:14:28;;;;;;;;;;;25.20;44.00;;;;;;4950798;28;45279;-60
2022/11/18 14:16:53;;;;;;;;;;;25.20;44.00;;;;;;4953753;28;45705;-63
2022/11/18 14:19:27;;;;;;;;;;;25.20;44.00;;;;;;4950275;28;45653;-62
2022/11/18 14:21:52;;;;;;;;;;;25.20;44.00;;;;;;4949090;28;45669;-64
2022/11/18 14:24:24;;;;;;;;;;;25.20;44.00;;;;;;4952988;28;46435;-64
2022/11/18 14:26:50;;;;;;;;;;;25.20;44.00;;;;;;4934621;28;46072;-63
2022/11/18 14:29:19;;;;;;;;;;;25.30;44.10;;;;;;4952868;28;45304;-61
2022/11/18 14:32:01;;;;;;;;;;;25.20;44.00;;;;;;4952115;28;45737;-57
2022/11/18 14:34:28;;;;;;;;;;;25.10;44.10;;;;;;4953284;28;45778;-65
2022/11/18 14:36:54;;;;;;;;;;;25.10;44.90;;;;;;4933581;28;47104;-62
2022/11/18 14:39:23;;;;;;;;;;;25.10;44.30;;;;;;4952228;28;45764;-62
2022/11/18 14:41:49;;;;;;;;;;;25.10;44.40;;;;;;4952535;28;46353;-66
2022/11/18 14:44:15;;;;;;;;;;;25.10;44.30;;;;;;4953095;28;46253;-71
2022/11/18 14:46:41;;;;;;;;;;;25.10;44.30;;;;;;4950733;28;46024;-64
2022/11/18 14:49:09;;;;;;;;;;;25.20;44.30;;;;;;4953428;28;45350;-60
2022/11/18 14:51:34;;;;;;;;;;;25.20;44.30;;;;;;4949061;28;45189;-66
2022/11/18 14:54:00;;;;;;;;;;;25.20;44.20;;;;;;4951722;28;45320;-64
2022/11/18 14:56:26;;;;;;;;;;;25.20;44.20;;;;;;4952354;28;46065;-64
2022/11/18 14:58:52;;;;;;;;;;;25.20;44.20;;;;;;4952311;28;45113;-64
2022/11/18 15:01:17;;;;;;;;;;;25.20;44.10;;;;;;4951660;28;45574;-59
2022/11/18 15:03:43;;;;;;;;;;;25.30;44.20;;;;;;4950939;28;45645;-62
2022/11/18 15:06:12;;;;;;;;;;;25.30;44.20;;;;;;4951488;28;45999;-60
2022/11/18 15:08:38;;;;;;;;;;;25.30;44.10;;;;;;4947824;28;46214;-65
2022/11/18 15:11:03;;;;;;;;;;;25.30;44.10;;;;;;4949093;28;45498;-62
2022/11/18 15:13:29;;;;;;;;;;;25.30;44.10;;;;;;4948301;28;45594;-62
2022/11/18 15:15:54;;;;;;;;;;;25.40;44.20;;;;;;4946187;28;46267;-61
2022/11/18 15:18:23;;;;;;;;;;;25.40;44.20;;;;;;4953336;28;45311;-60
2022/11/18 15:20:49;;;;;;;;;;;25.40;44.10;;;;;;4952789;28;46283;-64
2022/11/18 15:23:15;;;;;;;;;;;25.40;44.10;;;;;;4952975;28;45475;-62
2022/11/18 15:25:40;;;;;;;;;;;25.40;44.10;;;;;;4952854;28;46145;-64
2022/11/18 15:28:08;;;;;;;;;;;25.40;44.10;;;;;;4950649;28;46357;-64
2022/11/18 15:30:33;;;;;;;;;;;25.40;44.10;;;;;;4951707;28;45886;-66
2022/11/18 15:32:59;;;;;;;;;;;25.30;44.20;;;;;;4951165;28;46253;-65
2022/11/18 15:35:25;;;;;;;;;;;25.30;44.30;;;;;;4952455;28;46992;-64
2022/11/18 15:37:50;;;;;;;;;;;25.20;44.30;;;;;;4952072;28;45726;-60
2022/11/18 15:40:16;;;;;;;;;;;25.30;44.40;;;;;;4947929;28;45065;-57
2022/11/18 15:42:41;;;;;;;;;;;25.30;44.40;;;;;;4950010;28;45680;-63
2022/11/18 15:45:07;;;;;;;;;;;25.30;44.40;;;;;;4950198;28;47989;-64
2022/11/18 15:47:32;;;;;;;;;;;25.30;44.30;;;;;;4949455;28;44960;-63
2022/11/18 15:49:58;;;;;;;;;;;25.30;44.30;;;;;;4952949;28;44921;-62
2022/11/18 15:52:24;;;;;;;;;;;25.30;44.20;;;;;;4951433;28;45300;-66
2022/11/18 15:54:49;;;;;;;;;;;25.40;44.30;;;;;;4935369;28;45850;-65
2022/11/18 15:57:15;;;;;;;;;;;25.40;44.20;;;;;;4948177;28;45307;-65
2022/11/18 15:59:40;;;;;;;;;;;25.40;44.20;;;;;;4951938;28;45267;-62
2022/11/18 16:02:07;;;;;;;;;;;25.50;44.20;;;;;;4950372;28;45326;-63
2022/11/18 16:04:32;;;;;;;;;;;25.50;44.20;;;;;;4947478;28;46049;-63
2022/11/18 16:06:59;;;;;;;;;;;25.50;44.10;;;;;;4950469;28;45796;-64
2022/11/18 16:12:45;;;;;;;;;;;25.50;44.10;;;;;;4953033;28;45515;-60
2022/11/18 16:15:42;;;;;;;;;;;25.50;44.00;;;;;;4952510;28;46166;-64
2022/11/18 16:17:40;;;;;;;;;;;25.50;44.00;;;;;;4951404;28;45700;-69
2022/11/18 16:20:06;;;;;;;;;;;25.50;44.10;;;;;;4949280;28;45335;-62
2022/11/18 16:22:31;;;;;;;;;;;25.40;44.20;;;;;;4949894;28;45707;-62
2022/11/18 16:24:57;;;;;;;;;;;25.40;44.40;;;;;;4948068;28;45933;-63
2022/11/18 16:27:22;;;;;;;;;;;25.30;44.30;;;;;;4949210;28;44945;-64
2022/11/18 16:29:48;;;;;;;;;;;25.40;44.40;;;;;;4950336;28;45564;-64
2022/11/18 16:32:13;;;;;;;;;;;25.40;44.40;;;;;;4950806;28;45463;-64
2022/11/18 16:34:39;;;;;;;;;;;25.40;44.30;;;;;;4951148;28;45874;-64
2022/11/18 16:37:05;;;;;;;;;;;25.40;44.20;;;;;;4949507;28;45406;-64
2022/11/18 16:39:30;;;;;;;;;;;25.40;44.20;;;;;;4950894;28;45832;-65
2022/11/18 16:41:56;;;;;;;;;;;25.50;44.20;;;;;;4949828;28;45489;-63
2022/11/18 16:44:22;;;;;;;;;;;25.50;44.20;;;;;;4951280;28;46019;-62
2022/11/18 16:46:48;;;;;;;;;;;25.50;44.10;;;;;;4950603;28;46249;-62
2022/11/18 16:49:14;;;;;;;;;;;25.50;44.20;;;;;;4952519;28;45506;-62
2022/11/18 16:51:43;;;;;;;;;;;25.60;44.20;;;;;;4953425;28;45028;-61
2022/11/18 16:54:14;;;;;;;;;;;25.50;44.10;;;;;;4936433;28;48257;-68
2022/11/18 16:56:40;;;;;;;;;;;25.50;44.00;;;;;;4949830;28;45739;-63
2022/11/18 16:59:06;;;;;;;;;;;25.60;44.10;;;;;;4954310;28;45308;-62
2022/11/18 17:01:32;;;;;;;;;;;25.60;44.10;;;;;;4952943;28;44816;-64
2022/11/18 17:03:59;;;;;;;;;;;25.50;44.00;;;;;;4951729;28;46139;-64
2022/11/18 17:06:24;;;;;;;;;;;25.50;44.10;;;;;;4952904;28;45673;-62
2022/11/18 17:08:50;;;;;;;;;;;25.40;44.20;;;;;;4952671;28;46166;-61
2022/11/18 17:11:15;;;;;;;;;;;25.40;44.30;;;;;;4949848;28;45081;-63
2022/11/18 17:13:41;;;;;;;;;;;25.40;44.30;;;;;;4949923;28;46306;-60
2022/11/18 17:16:07;;;;;;;;;;;25.40;44.30;;;;;;4951548;28;45724;-63
2022/11/18 17:18:33;;;;;;;;;;;25.50;44.30;;;;;;4950739;28;45384;-62
2022/11/18 17:21:05;;;;;;;;;;;25.50;44.30;;;;;;4951336;28;45631;-62
2022/11/18 17:23:30;;;;;;;;;;;25.50;44.30;;;;;;4949504;28;46214;-62
2022/11/18 17:25:56;;;;;;;;;;;25.50;44.20;;;;;;4951579;28;45456;-62
2022/11/18 17:28:22;;;;;;;;;;;25.50;44.20;;;;;;4948105;28;45722;-61
2022/11/18 17:30:47;;;;;;;;;;;25.50;44.10;;;;;;4949607;28;45393;-61
2022/11/18 17:33:13;;;;;;;;;;;25.60;44.20;;;;;;4949864;28;46010;-63
2022/11/18 17:35:38;;;;;;;;;;;25.60;44.20;;;;;;4948306;28;45784;-60
2022/11/18 17:38:04;;;;;;;;;;;25.60;44.10;;;;;;4948772;28;44715;-63
2022/11/18 17:40:29;;;;;;;;;;;25.60;44.10;;;;;;4949463;28;45700;-63
2022/11/18 17:42:54;;;;;;;;;;;25.60;44.20;;;;;;4949711;28;46169;-62
2022/11/18 17:45:20;;;;;;;;;;;25.50;44.10;;;;;;4949904;28;46203;-60
2022/11/18 17:47:45;;;;;;;;;;;25.50;44.20;;;;;;4949264;28;45316;-63
2022/11/18 17:50:11;;;;;;;;;;;25.40;44.40;;;;;;4948722;28;45712;-64
2022/11/18 17:52:36;;;;;;;;;;;25.30;44.50;;;;;;4949492;28;46168;-64
2022/11/18 17:55:02;;;;;;;;;;;25.20;44.70;;;;;;4952253;28;44686;-63
2022/11/18 17:57:27;;;;;;;;;;;25.10;44.80;;;;;;4952898;28;45250;-63
2022/11/18 17:59:53;;;;;;;;;;;25.10;44.90;;;;;;4952592;28;46225;-61
2022/11/18 18:02:20;;;;;;;;;;;25.00;45.10;;;;;;4951232;28;46879;-66
2022/11/18 18:04:46;;;;;;;;;;;24.90;45.20;;;;;;4952419;28;45313;-63
2022/11/18 18:07:11;;;;;;;;;;;24.80;45.30;;;;;;4935160;28;45461;-61
2022/11/18 18:09:37;;;;;;;;;;;24.80;45.20;;;;;;4948386;28;46359;-61
2022/11/18 18:14:11;;;;;;;;;;;24.80;45.40;;;;;;4948054;28;45872;-65
2022/11/18 18:14:48;;;;;;;;;;;24.70;45.50;;;;;;4952555;28;45383;-59
2022/11/18 18:17:13;;;;;;;;;;;24.60;45.60;;;;;;4952584;28;45206;-65
2022/11/18 18:19:39;;;;;;;;;;;24.50;45.80;;;;;;4935690;28;45827;-64
2022/11/18 18:22:04;;;;;;;;;;;24.50;45.80;;;;;;4951515;28;45966;-69
2022/11/18 18:24:30;;;;;;;;;;;24.40;45.80;;;;;;4950925;28;45585;-65
2022/11/18 18:26:55;;;;;;;;;;;24.40;45.80;;;;;;4952133;28;45653;-65
2022/11/18 18:29:21;;;;;;;;;;;24.40;46.00;;;;;;4949467;28;44842;-66
2022/11/18 18:31:46;;;;;;;;;;;24.30;45.90;;;;;;4949966;28;45731;-64
2022/11/18 18:34:12;;;;;;;;;;;24.30;46.00;;;;;;4947069;28;45762;-63